createdAt,value
2018-11-01T00:00:39.697Z,45.90
2018-11-01T00:03:09.393Z,40.97
2018-11-01T00:05:39.226Z,44.63
2018-11-01T00:08:08.954Z,43.30
2018-11-01T00:10:38.710Z,43.17
2018-11-01T00:13:08.485Z,44.77
2018-11-01T00:15:38.164Z,44.30
2018-11-01T00:18:09.359Z,42.00
2018-11-01T00:20:39.064Z,43.43
2018-11-01T00:23:08.877Z,45.20
2018-11-01T00:25:38.549Z,38.70
2018-11-01T00:28:10.099Z,40.27
2018-11-01T00:30:39.968Z,39.57
2018-11-01T00:33:09.688Z,43.40
2018-11-01T00:35:39.675Z,41.53
2018-11-01T00:38:10.668Z,36.77
2018-11-01T00:40:40.472Z,40.13
2018-11-01T00:43:10.476Z,34.43
2018-11-01T00:45:40.355Z,35.23
2018-11-01T00:48:10.049Z,34.53
2018-11-01T00:50:39.847Z,33.93
2018-11-01T00:53:09.516Z,34.70
2018-11-01T00:55:40.799Z,28.93
2018-11-01T00:58:10.491Z,30.77
2018-11-01T01:00:41.386Z,31.63
2018-11-01T01:03:11.096Z,33.03
2018-11-01T01:05:41.286Z,32.07
2018-11-01T01:08:11.052Z,29.00
2018-11-01T01:10:40.775Z,29.67
2018-11-01T01:13:11.594Z,32.33
2018-11-01T01:15:42.200Z,30.60
2018-11-01T01:18:11.850Z,29.20
2018-11-01T01:20:41.611Z,28.97
2018-11-01T01:23:11.543Z,31.70
2018-11-01T01:25:41.216Z,33.13
2018-11-01T01:28:10.870Z,28.73
2018-11-01T01:30:40.580Z,30.60
2018-11-01T01:33:10.299Z,28.30
2018-11-01T01:35:39.988Z,29.47
2018-11-01T01:38:09.754Z,31.33
2018-11-01T01:40:39.444Z,29.47
2018-11-01T01:43:09.264Z,28.90
2018-11-01T01:45:38.959Z,28.20
2018-11-01T01:48:08.671Z,29.10
2018-11-01T01:50:38.505Z,25.90
2018-11-01T01:53:09.924Z,27.97
2018-11-01T01:55:39.625Z,28.20
2018-11-01T01:58:09.388Z,27.30
2018-11-01T02:00:39.175Z,28.67
2018-11-01T02:03:08.794Z,30.83
2018-11-01T02:05:38.700Z,29.60
2018-11-01T02:08:08.324Z,31.70
2018-11-01T02:10:38.105Z,31.87
2018-11-01T02:13:08.087Z,29.90
2018-11-01T02:15:37.799Z,31.30
2018-11-01T02:18:07.979Z,31.30
2018-11-01T02:20:37.682Z,31.47
2018-11-01T02:23:07.809Z,31.13
2018-11-01T02:25:37.657Z,31.37
2018-11-01T02:28:12.633Z,29.80
2018-11-01T02:30:43.229Z,33.97
2018-11-01T02:33:12.981Z,31.80
2018-11-01T02:35:42.666Z,29.07
2018-11-01T02:45:00.186Z,29.33
2018-11-01T02:47:29.889Z,31.10
2018-11-01T02:49:59.675Z,30.07
2018-11-01T02:52:29.415Z,29.90
2018-11-01T02:55:02.260Z,29.37
2018-11-01T02:57:32.015Z,29.93
2018-11-01T03:00:01.808Z,28.43
2018-11-01T03:02:31.863Z,28.90
2018-11-01T03:05:01.545Z,29.47
2018-11-01T03:07:31.278Z,27.93
2018-11-01T03:10:01.020Z,29.20
2018-11-01T03:12:30.964Z,29.33
2018-11-01T03:15:00.749Z,28.30
2018-11-01T03:17:30.461Z,27.00
2018-11-01T03:20:00.213Z,24.10
2018-11-01T03:22:30.134Z,31.13
2018-11-01T03:25:00.346Z,29.43
2018-11-01T03:27:30.254Z,27.37
2018-11-01T03:30:01.178Z,28.30
2018-11-01T03:32:31.258Z,29.87
2018-11-01T03:35:01.026Z,29.90
2018-11-01T03:37:30.747Z,27.93
2018-11-01T03:40:00.578Z,28.57
2018-11-01T03:42:30.348Z,28.23
2018-11-01T03:45:00.039Z,28.50
2018-11-01T03:47:30.065Z,29.43
2018-11-01T03:49:59.765Z,26.20
2018-11-01T03:52:29.714Z,30.13
2018-11-01T03:55:00.555Z,30.47
2018-11-01T03:57:30.260Z,30.57
2018-11-01T04:00:00.054Z,31.90
2018-11-01T04:02:29.817Z,31.50
2018-11-01T04:04:59.634Z,31.47
2018-11-01T04:07:29.319Z,30.23
2018-11-01T04:09:58.901Z,29.20
2018-11-01T04:12:28.808Z,29.63
2018-11-01T04:14:58.692Z,31.67
2018-11-01T04:17:29.552Z,29.13
2018-11-01T04:19:59.325Z,31.20
2018-11-01T04:22:29.025Z,34.57
2018-11-01T04:24:58.799Z,33.70
2018-11-01T04:27:28.577Z,30.50
2018-11-01T04:29:58.380Z,31.40
2018-11-01T04:32:28.023Z,31.10
2018-11-01T04:34:59.301Z,33.50
2018-11-01T04:37:29.055Z,32.87
2018-11-01T04:39:58.700Z,33.63
2018-11-01T04:42:29.089Z,36.03
2018-11-01T04:44:58.907Z,34.03
2018-11-01T04:47:28.697Z,34.13
2018-11-01T04:49:58.408Z,36.37
2018-11-01T04:52:28.080Z,39.20
2018-11-01T04:54:59.066Z,35.70
2018-11-01T04:57:28.730Z,34.87
2018-11-01T04:59:58.874Z,36.37
2018-11-01T05:02:28.562Z,39.27
2018-11-01T05:04:58.685Z,36.50
2018-11-01T05:07:28.447Z,36.33
2018-11-01T05:09:58.936Z,37.73
2018-11-01T05:12:28.580Z,34.30
2018-11-01T05:14:58.384Z,36.97
2018-11-01T05:17:28.331Z,35.40
2018-11-01T05:19:58.406Z,34.40
2018-11-01T05:22:28.214Z,35.07
2018-11-01T05:24:58.038Z,35.63
2018-11-01T05:27:27.867Z,33.10
2018-11-01T05:29:57.623Z,34.27
2018-11-01T05:32:34.123Z,33.97
2018-11-01T05:35:05.445Z,34.50
2018-11-01T05:37:35.125Z,33.47
2018-11-01T05:40:06.013Z,33.90
2018-11-01T05:42:36.502Z,33.10
2018-11-01T05:45:06.803Z,34.77
2018-11-01T05:47:36.875Z,34.50
2018-11-01T05:50:07.574Z,34.20
2018-11-01T05:52:38.638Z,35.60
2018-11-01T05:55:09.221Z,36.20
2018-11-01T05:57:39.782Z,34.13
2018-11-01T06:00:12.933Z,34.90
2018-11-01T06:02:44.841Z,33.00
2018-11-01T06:05:15.617Z,34.00
2018-11-01T06:07:50.093Z,34.30
2018-11-01T06:10:19.851Z,34.57
2018-11-01T06:12:49.698Z,32.00
2018-11-01T06:15:21.746Z,31.37
2018-11-01T06:17:52.121Z,32.37
2018-11-01T06:20:22.068Z,34.63
2018-11-01T06:22:51.941Z,33.80
2018-11-01T06:25:21.965Z,32.23
2018-11-01T06:27:52.744Z,31.70
2018-11-01T06:30:22.513Z,31.90
2018-11-01T06:32:52.209Z,31.43
2018-11-01T06:35:59.113Z,30.67
2018-11-01T06:38:29.408Z,29.33
2018-11-01T06:40:59.111Z,29.63
2018-11-01T06:43:29.115Z,27.33
2018-11-01T06:45:58.882Z,28.70
2018-11-01T06:48:28.591Z,26.93
2018-11-01T06:50:58.426Z,27.10
2018-11-01T06:53:28.214Z,28.07
2018-11-01T06:55:57.907Z,27.77
2018-11-01T06:58:27.802Z,25.73
2018-11-01T07:00:59.414Z,27.33
2018-11-01T07:03:29.219Z,26.27
2018-11-01T07:05:58.877Z,26.67
2018-11-01T07:08:28.766Z,24.30
2018-11-01T07:10:58.527Z,25.60
2018-11-01T07:13:28.241Z,25.97
2018-11-01T07:15:59.262Z,24.70
2018-11-01T07:18:29.498Z,24.57
2018-11-01T07:20:59.368Z,24.63
2018-11-01T07:23:31.245Z,26.33
2018-11-01T07:26:01.128Z,24.93
2018-11-01T07:28:30.751Z,26.20
2018-11-01T07:31:00.611Z,27.70
2018-11-01T07:33:30.367Z,26.80
2018-11-01T07:36:00.162Z,26.20
2018-11-01T07:38:30.899Z,29.73
2018-11-01T07:41:00.688Z,29.33
2018-11-01T07:43:30.373Z,28.40
2018-11-01T07:46:02.234Z,30.40
2018-11-01T07:48:32.204Z,29.77
2018-11-01T07:51:04.433Z,28.20
2018-11-01T07:53:34.291Z,30.00
2018-11-01T07:56:05.287Z,30.73
2018-11-01T07:58:35.438Z,27.50
2018-11-01T08:01:05.189Z,25.80
2018-11-01T08:03:35.005Z,29.27
2018-11-01T08:06:04.959Z,28.53
2018-11-01T08:08:35.590Z,28.47
2018-11-01T08:11:06.385Z,30.57
2018-11-01T08:13:36.238Z,29.23
2018-11-01T08:16:06.393Z,29.10
2018-11-01T08:18:36.099Z,29.80
2018-11-01T08:21:06.283Z,27.80
2018-11-01T08:23:36.514Z,27.50
2018-11-01T08:26:06.252Z,28.70
2018-11-01T08:28:36.217Z,27.90
2018-11-01T08:31:06.925Z,28.17
2018-11-01T08:33:36.841Z,29.03
2018-11-01T08:36:08.482Z,28.87
2018-11-01T08:38:39.082Z,25.83
2018-11-01T08:41:09.332Z,27.17
2018-11-01T08:43:53.927Z,28.33
2018-11-01T08:46:25.167Z,26.80
2018-11-01T08:49:02.928Z,24.63
2018-11-01T08:51:44.205Z,26.90
2018-11-01T08:54:14.576Z,26.43
2018-11-01T08:56:44.413Z,25.40
2018-11-01T08:59:14.154Z,24.23
2018-11-01T09:01:43.864Z,25.67
2018-11-01T09:04:14.229Z,24.53
2018-11-01T09:06:44.769Z,26.90
2018-11-01T09:09:15.035Z,25.00
2018-11-01T09:11:45.881Z,24.97
2018-11-01T09:14:21.556Z,26.03
2018-11-01T09:16:55.874Z,25.53
2018-11-01T09:19:30.460Z,25.53
2018-11-01T09:22:03.913Z,26.57
2018-11-01T09:24:34.578Z,24.60
2018-11-01T09:27:04.848Z,25.10
2018-11-01T09:29:34.786Z,24.30
2018-11-01T09:32:05.315Z,24.73
2018-11-01T09:34:38.758Z,23.33
2018-11-01T09:37:09.594Z,25.20
2018-11-01T09:39:47.839Z,22.83
2018-11-01T09:42:20.633Z,22.80
2018-11-01T09:44:54.690Z,23.53
2018-11-01T09:47:25.803Z,24.30
2018-11-01T09:49:55.284Z,25.13
2018-11-01T09:52:25.203Z,24.33
2018-11-01T09:54:55.056Z,23.50
2018-11-01T09:57:25.832Z,24.50
2018-11-01T09:59:55.916Z,22.60
2018-11-01T10:02:25.919Z,24.60
2018-11-01T10:04:55.639Z,31.40
2018-11-01T10:07:25.437Z,27.53
2018-11-01T10:09:55.499Z,25.07
2018-11-01T10:12:25.674Z,24.63
2018-11-01T10:14:58.881Z,28.83
2018-11-01T10:17:30.147Z,25.37
2018-11-01T10:20:00.921Z,27.53
2018-11-01T10:22:31.592Z,27.27
2018-11-01T10:25:01.698Z,27.53
2018-11-01T10:27:34.164Z,25.80
2018-11-01T10:30:04.616Z,26.80
2018-11-01T10:32:36.272Z,27.30
2018-11-01T10:35:06.605Z,25.73
2018-11-01T10:37:37.043Z,26.07
2018-11-01T10:40:08.487Z,26.50
2018-11-01T10:42:38.517Z,25.67
2018-11-01T10:45:08.771Z,27.37
2018-11-01T10:47:39.170Z,23.30
2018-11-01T10:50:12.947Z,22.50
2018-11-01T10:52:43.252Z,22.53
2018-11-01T10:55:14.170Z,23.50
2018-11-01T10:57:45.489Z,23.10
2018-11-01T11:00:20.584Z,25.90
2018-11-01T11:02:51.937Z,24.20
2018-11-01T11:05:23.119Z,22.83
2018-11-01T11:07:54.132Z,23.57
2018-11-01T11:10:24.296Z,25.30
2018-11-01T11:12:54.590Z,26.17
2018-11-01T11:15:28.864Z,23.17
2018-11-01T11:17:59.848Z,26.23
2018-11-01T11:20:31.591Z,38.27
2018-11-01T11:23:01.595Z,28.77
2018-11-01T11:25:31.613Z,29.00
2018-11-01T11:28:01.754Z,25.30
2018-11-01T11:30:32.631Z,23.70
2018-11-01T11:33:02.801Z,24.43
2018-11-01T11:35:32.921Z,23.33
2018-11-01T11:38:07.438Z,24.57
2018-11-01T11:40:37.524Z,24.47
2018-11-01T11:43:07.782Z,23.50
2018-11-01T11:45:37.841Z,25.33
2018-11-01T11:48:08.310Z,23.93
2018-11-01T11:50:39.717Z,24.20
2018-11-01T11:53:10.725Z,25.87
2018-11-01T11:55:41.034Z,23.50
2018-11-01T11:58:12.995Z,23.03
2018-11-01T12:00:43.285Z,25.50
2018-11-01T12:03:15.080Z,24.13
2018-11-01T12:05:46.081Z,25.87
2018-11-01T12:08:16.356Z,24.20
2018-11-01T12:10:47.471Z,24.90
2018-11-01T12:13:18.709Z,27.40
2018-11-01T12:15:48.864Z,27.00
2018-11-01T12:18:19.287Z,28.40
2018-11-01T12:20:49.589Z,26.77
2018-11-01T12:23:19.856Z,27.93
2018-11-01T12:25:50.028Z,30.00
2018-11-01T12:28:20.364Z,27.77
2018-11-01T12:30:50.613Z,26.97
2018-11-01T12:33:21.684Z,30.00
2018-11-01T12:35:51.742Z,29.50
2018-11-01T12:38:23.231Z,29.23
2018-11-01T12:40:53.354Z,27.53
2018-11-01T12:43:23.502Z,27.00
2018-11-01T12:45:54.835Z,28.63
2018-11-01T12:48:24.984Z,27.73
2018-11-01T12:50:55.149Z,26.90
2018-11-01T12:53:25.442Z,29.10
2018-11-01T12:55:55.786Z,25.63
2018-11-01T12:58:27.698Z,24.63
2018-11-01T13:00:57.863Z,26.00
2018-11-01T13:03:28.154Z,24.07
2018-11-01T13:05:58.721Z,26.30
2018-11-01T13:08:28.911Z,24.00
2018-11-01T13:10:58.997Z,24.63
2018-11-01T13:13:29.426Z,23.60
2018-11-01T13:15:59.652Z,22.53
2018-11-01T13:18:29.990Z,24.70
2018-11-01T13:21:00.000Z,23.77
2018-11-01T13:23:30.380Z,51.80
2018-11-01T13:26:00.396Z,48.60
2018-11-01T13:28:30.403Z,33.67
2018-11-01T13:31:02.592Z,26.57
2018-11-01T13:33:34.029Z,27.80
2018-11-01T13:36:04.521Z,27.60
2018-11-01T13:38:34.935Z,28.30
2018-11-01T13:41:05.396Z,26.07
2018-11-01T13:43:35.314Z,27.43
2018-11-01T13:46:05.919Z,27.63
2018-11-01T13:48:36.094Z,28.80
2018-11-01T13:51:06.529Z,25.87
2018-11-01T13:53:36.644Z,28.20
2018-11-01T13:56:06.990Z,39.50
2018-11-01T13:58:38.759Z,36.20
2018-11-01T14:01:09.559Z,29.87
2018-11-01T14:03:39.879Z,36.00
2018-11-01T14:06:10.033Z,29.63
2018-11-01T14:08:41.153Z,29.07
2018-11-01T14:11:11.082Z,28.87
2018-11-01T14:13:41.183Z,28.17
2018-11-01T14:16:11.422Z,28.67
2018-11-01T14:18:41.516Z,29.00
2018-11-01T14:21:11.545Z,28.27
2018-11-01T14:23:42.125Z,28.83
2018-11-01T14:26:12.918Z,31.27
2018-11-01T14:28:43.098Z,30.50
2018-11-01T14:31:13.089Z,27.60
2018-11-01T14:33:42.783Z,28.47
2018-11-01T14:36:12.991Z,29.23
2018-11-01T14:38:43.232Z,27.27
2018-11-01T14:41:13.952Z,25.73
2018-11-01T14:43:47.884Z,27.50
2018-11-01T14:46:19.589Z,28.30
2018-11-01T14:48:50.746Z,28.20
2018-11-01T14:51:20.972Z,28.70
2018-11-01T14:53:52.224Z,28.27
2018-11-01T14:56:23.666Z,30.17
2018-11-01T14:58:53.621Z,27.07
2018-11-01T15:01:24.609Z,30.70
2018-11-01T15:03:54.977Z,30.30
2018-11-01T15:06:25.374Z,30.13
2018-11-01T15:08:55.591Z,31.17
2018-11-01T15:11:25.812Z,29.00
2018-11-01T15:13:56.371Z,30.40
2018-11-01T15:16:26.746Z,26.53
2018-11-01T15:18:57.091Z,29.50
2018-11-01T15:21:27.235Z,29.63
2018-11-01T15:23:58.006Z,30.43
2018-11-01T15:26:28.868Z,31.77
2018-11-01T15:28:59.230Z,31.60
2018-11-01T15:31:29.840Z,30.23
2018-11-01T15:34:00.238Z,30.30
2018-11-01T15:36:30.196Z,29.63
2018-11-01T15:39:00.680Z,26.30
2018-11-01T15:41:30.720Z,29.27
2018-11-01T15:44:02.154Z,29.50
2018-11-01T15:46:32.460Z,29.27
2018-11-01T15:49:03.609Z,28.90
2018-11-01T15:51:33.569Z,29.10
2018-11-01T15:54:03.499Z,29.33
2018-11-01T15:56:33.940Z,28.13
2018-11-01T15:59:04.169Z,29.33
2018-11-01T16:01:34.499Z,28.30
2018-11-01T16:04:05.024Z,26.90
2018-11-01T16:06:35.483Z,28.63
2018-11-01T16:09:07.937Z,27.27
2018-11-01T16:11:38.953Z,26.90
2018-11-01T16:14:09.709Z,29.67
2018-11-01T16:16:40.547Z,29.07
2018-11-01T16:19:11.397Z,29.90
2018-11-01T16:21:41.750Z,28.23
2018-11-01T16:24:12.004Z,29.30
2018-11-01T16:26:42.224Z,28.20
2018-11-01T16:29:13.183Z,28.23
2018-11-01T16:31:44.197Z,29.47
2018-11-01T16:34:14.738Z,30.33
2018-11-01T16:36:44.967Z,28.00
2018-11-01T16:39:16.319Z,29.67
2018-11-01T16:41:51.433Z,28.40
2018-11-01T16:44:21.292Z,28.93
2018-11-01T16:46:51.068Z,29.27
2018-11-01T16:49:21.086Z,30.83
2018-11-01T16:51:50.897Z,30.47
2018-11-01T16:54:20.630Z,30.80
2018-11-01T16:56:50.559Z,31.63
2018-11-01T16:59:21.849Z,33.57
2018-11-01T17:01:52.916Z,32.00
2018-11-01T17:04:23.997Z,31.83
2018-11-01T17:06:54.312Z,33.70
2018-11-01T17:09:25.448Z,32.70
2018-11-01T17:11:55.720Z,31.97
2018-11-01T17:14:25.645Z,34.83
2018-11-01T17:16:55.337Z,32.50
2018-11-01T17:19:25.721Z,30.90
2018-11-01T17:21:56.452Z,29.90
2018-11-01T17:24:26.908Z,30.03
2018-11-01T17:26:57.120Z,30.70
2018-11-01T17:29:28.046Z,28.47
2018-11-01T17:32:00.349Z,28.23
2018-11-01T17:34:31.723Z,30.47
2018-11-01T17:37:01.547Z,30.93
2018-11-01T17:39:31.418Z,30.17
2018-11-01T17:42:01.366Z,32.30
2018-11-01T17:44:34.645Z,33.43
2018-11-01T17:47:04.613Z,32.60
2018-11-01T17:49:34.798Z,33.33
2018-11-01T17:52:04.986Z,30.90
2018-11-01T17:54:37.752Z,33.33
2018-11-01T17:57:07.968Z,28.00
2018-11-01T17:59:38.234Z,29.03
2018-11-01T18:02:08.263Z,29.23
2018-11-01T18:04:38.300Z,31.70
2018-11-01T18:07:08.550Z,33.07
2018-11-01T18:09:38.951Z,30.50
2018-11-01T18:12:10.948Z,31.33
2018-11-01T18:14:41.152Z,30.80
2018-11-01T18:17:11.552Z,31.87
2018-11-01T18:19:41.833Z,30.60
2018-11-01T18:22:11.730Z,29.63
2018-11-01T18:24:41.588Z,28.43
2018-11-01T18:27:11.388Z,29.80
2018-11-01T18:29:41.237Z,32.37
2018-11-01T18:32:11.163Z,28.37
2018-11-01T18:34:42.235Z,31.60
2018-11-01T18:37:12.089Z,31.60
2018-11-01T18:39:42.480Z,31.30
2018-11-01T18:42:26.047Z,34.20
2018-11-01T18:44:56.275Z,33.70
2018-11-01T18:47:26.682Z,33.27
2018-11-01T18:49:56.941Z,30.60
2018-11-01T18:52:33.125Z,29.93
2018-11-01T18:55:03.243Z,31.10
2018-11-01T18:57:33.785Z,29.70
2018-11-01T19:00:05.066Z,28.90
2018-11-01T19:02:35.173Z,26.40
2018-11-01T19:05:05.504Z,22.40
2018-11-01T19:07:35.824Z,24.93
2018-11-01T19:10:06.894Z,22.07
2018-11-01T19:12:38.509Z,25.20
2018-11-01T19:15:09.983Z,24.27
2018-11-01T19:17:40.645Z,24.20
2018-11-01T19:20:11.675Z,26.40
2018-11-01T19:22:41.671Z,24.90
2018-11-01T19:25:13.077Z,24.17
2018-11-01T19:27:44.938Z,21.47
2018-11-01T19:30:15.055Z,20.60
2018-11-01T19:32:45.959Z,21.10
2018-11-01T19:35:16.361Z,22.20
2018-11-01T19:37:46.580Z,22.57
2018-11-01T19:40:17.238Z,21.27
2018-11-01T19:42:49.144Z,20.50
2018-11-01T19:45:19.128Z,18.83
2018-11-01T19:47:48.938Z,19.10
2018-11-01T19:50:19.413Z,17.80
2018-11-01T19:52:49.257Z,19.13
2018-11-01T19:55:19.177Z,17.70
2018-11-01T19:57:49.079Z,16.03
2018-11-01T20:00:19.314Z,17.60
2018-11-01T20:02:50.092Z,17.10
2018-11-01T20:05:19.861Z,17.60
2018-11-01T20:07:49.722Z,17.23
2018-11-01T20:10:20.832Z,19.73
2018-11-01T20:12:51.863Z,17.40
2018-11-01T20:15:23.024Z,16.43
2018-11-01T20:17:53.619Z,17.80
2018-11-01T20:20:23.949Z,18.10
2018-11-01T20:22:58.429Z,17.43
2018-11-01T20:25:28.702Z,17.30
2018-11-01T20:27:58.852Z,18.20
2018-11-01T20:30:29.751Z,18.43
2018-11-01T20:33:00.831Z,16.63
2018-11-01T20:35:30.858Z,17.30
2018-11-01T20:38:00.688Z,17.67
2018-11-01T20:40:30.301Z,18.10
2018-11-01T20:43:00.276Z,16.50
2018-11-01T20:45:30.205Z,16.50
2018-11-01T20:48:01.169Z,16.10
2018-11-01T20:50:31.396Z,15.87
2018-11-01T20:53:02.460Z,17.80
2018-11-01T20:55:32.749Z,15.17
2018-11-01T20:58:02.886Z,17.80
2018-11-01T21:00:33.494Z,15.87
2018-11-01T21:03:03.870Z,16.73
2018-11-01T21:05:34.009Z,16.20
2018-11-01T21:08:04.425Z,14.63
2018-11-01T21:10:35.058Z,15.80
2018-11-01T21:13:06.262Z,15.30
2018-11-01T21:15:36.134Z,17.90
2018-11-01T21:18:06.118Z,16.30
2018-11-01T21:20:35.989Z,16.20
2018-11-01T21:23:06.034Z,15.80
2018-11-01T21:25:35.810Z,15.40
2018-11-01T21:28:05.877Z,15.60
2018-11-01T21:30:35.819Z,14.70
2018-11-01T21:33:05.837Z,16.53
2018-11-01T21:35:35.601Z,14.47
2018-11-01T21:38:05.505Z,15.23
2018-11-01T21:40:35.470Z,15.20
2018-11-01T21:43:05.368Z,14.23
2018-11-01T21:45:35.121Z,14.50
2018-11-01T21:48:06.110Z,15.40
2018-11-01T21:50:35.898Z,13.83
2018-11-01T21:53:05.729Z,16.17
2018-11-01T21:55:35.863Z,14.27
2018-11-01T21:58:05.999Z,15.07
2018-11-01T22:00:35.997Z,14.07
2018-11-01T22:03:05.747Z,14.40
2018-11-01T22:05:35.706Z,14.50
2018-11-01T22:08:05.641Z,14.10
2018-11-01T22:10:35.410Z,15.00
2018-11-01T22:13:05.255Z,16.70
2018-11-01T22:15:34.987Z,15.50
2018-11-01T22:18:06.136Z,15.03
2018-11-01T22:20:36.005Z,15.40
2018-11-01T22:23:05.906Z,13.93
2018-11-01T22:25:36.517Z,14.47
2018-11-01T22:28:07.343Z,12.77
2018-11-01T22:30:37.109Z,13.53
2018-11-01T22:33:06.925Z,13.63
2018-11-01T22:35:36.884Z,12.40
2018-11-01T22:38:06.955Z,13.80
2018-11-01T22:40:36.781Z,12.27
2018-11-01T22:43:06.786Z,12.63
2018-11-01T22:45:36.706Z,12.10
2018-11-01T22:48:06.756Z,12.73
2018-11-01T22:50:36.865Z,13.90
2018-11-01T22:53:06.605Z,13.60
2018-11-01T22:55:36.413Z,12.67
2018-11-01T22:58:06.350Z,12.13
2018-11-01T23:00:41.045Z,12.50
2018-11-01T23:03:11.510Z,12.00
2018-11-01T23:05:41.268Z,13.10
2018-11-01T23:08:10.945Z,12.77
2018-11-01T23:10:40.477Z,12.80
2018-11-01T23:13:11.121Z,12.53
2018-11-01T23:15:40.745Z,12.70
2018-11-01T23:18:10.622Z,12.97
2018-11-01T23:20:40.139Z,11.83
2018-11-01T23:23:09.694Z,12.97
2018-11-01T23:25:39.175Z,13.00
2018-11-01T23:28:08.729Z,12.40
2018-11-01T23:30:40.426Z,11.73
2018-11-01T23:33:10.038Z,11.67
2018-11-01T23:35:39.844Z,12.83
2018-11-01T23:38:14.389Z,12.00
2018-11-01T23:40:48.888Z,12.73
2018-11-01T23:43:24.228Z,11.57
2018-11-01T23:45:58.764Z,11.73
2018-11-01T23:48:28.164Z,11.50
2018-11-01T23:51:11.763Z,11.47
2018-11-01T23:53:46.529Z,10.83
2018-11-01T23:56:16.124Z,10.63
2018-11-01T23:58:46.111Z,11.40
